sensor_id;sensor_type;location;lat;lon;timestamp;temperature;humidity
52615;DHT22;38508;53.158;6.614;2023-04-06T00:01:37;6.00;99.90
52615;DHT22;38508;53.158;6.614;2023-04-06T00:04:03;6.10;99.90
52615;DHT22;38508;53.158;6.614;2023-04-06T00:06:29;6.20;99.90
52615;DHT22;38508;53.158;6.614;2023-04-06T00:08:55;6.20;99.90
52615;DHT22;38508;53.158;6.614;2023-04-06T00:11:21;6.10;99.90
52615;DHT22;38508;53.158;6.614;2023-04-06T00:13:47;6.00;99.90
52615;DHT22;38508;53.158;6.614;2023-04-06T00:16:13;6.00;99.90
52615;DHT22;38508;53.158;6.614;2023-04-06T00:18:39;6.00;99.90
52615;DHT22;38508;53.158;6.614;2023-04-06T00:21:05;6.00;99.90
52615;DHT22;38508;53.158;6.614;2023-04-06T00:23:31;6.00;99.90
52615;DHT22;38508;53.158;6.614;2023-04-06T00:25:56;6.00;99.90
52615;DHT22;38508;53.158;6.614;2023-04-06T00:28:22;6.10;99.90
52615;DHT22;38508;53.158;6.614;2023-04-06T00:30:52;6.10;99.90
52615;DHT22;38508;53.158;6.614;2023-04-06T00:33:22;6.10;99.90
52615;DHT22;38508;53.158;6.614;2023-04-06T00:35:48;6.00;99.90
52615;DHT22;38508;53.158;6.614;2023-04-06T00:38:14;6.00;99.90
52615;DHT22;38508;53.158;6.614;2023-04-06T00:40:40;6.00;99.90
52615;DHT22;38508;53.158;6.614;2023-04-06T00:43:07;5.90;99.90
52615;DHT22;38508;53.158;6.614;2023-04-06T00:45:34;5.90;99.90
52615;DHT22;38508;53.158;6.614;2023-04-06T00:48:00;6.00;99.90
52615;DHT22;38508;53.158;6.614;2023-04-06T00:50:27;6.00;99.90
52615;DHT22;38508;53.158;6.614;2023-04-06T00:52:53;5.90;99.90
52615;DHT22;38508;53.158;6.614;2023-04-06T00:55:20;5.90;99.90
52615;DHT22;38508;53.158;6.614;2023-04-06T00:57:45;5.90;99.90
52615;DHT22;38508;53.158;6.614;2023-04-06T01:00:12;6.00;99.90
52615;DHT22;38508;53.158;6.614;2023-04-06T01:02:38;5.90;99.90
52615;DHT22;38508;53.158;6.614;2023-04-06T01:05:04;5.80;99.90
52615;DHT22;38508;53.158;6.614;2023-04-06T01:07:30;5.80;99.90
52615;DHT22;38508;53.158;6.614;2023-04-06T01:09:56;5.80;99.90
52615;DHT22;38508;53.158;6.614;2023-04-06T01:12:22;5.80;99.90
52615;DHT22;38508;53.158;6.614;2023-04-06T01:14:48;5.80;99.90
52615;DHT22;38508;53.158;6.614;2023-04-06T01:17:14;5.80;99.90
52615;DHT22;38508;53.158;6.614;2023-04-06T01:19:39;5.70;99.90
52615;DHT22;38508;53.158;6.614;2023-04-06T01:22:16;5.70;99.90
52615;DHT22;38508;53.158;6.614;2023-04-06T01:24:42;5.70;99.90
52615;DHT22;38508;53.158;6.614;2023-04-06T01:27:08;5.60;99.90
52615;DHT22;38508;53.158;6.614;2023-04-06T01:29:34;5.60;99.90
52615;DHT22;38508;53.158;6.614;2023-04-06T01:32:00;5.60;99.90
52615;DHT22;38508;53.158;6.614;2023-04-06T01:34:25;5.60;99.90
52615;DHT22;38508;53.158;6.614;2023-04-06T01:36:51;5.50;99.90
52615;DHT22;38508;53.158;6.614;2023-04-06T01:39:17;5.50;99.90
52615;DHT22;38508;53.158;6.614;2023-04-06T01:41:43;5.60;99.90
52615;DHT22;38508;53.158;6.614;2023-04-06T01:44:09;5.50;99.90
52615;DHT22;38508;53.158;6.614;2023-04-06T01:46:34;5.50;99.90
52615;DHT22;38508;53.158;6.614;2023-04-06T01:49:00;5.50;99.90
52615;DHT22;38508;53.158;6.614;2023-04-06T01:51:26;5.50;99.90
52615;DHT22;38508;53.158;6.614;2023-04-06T01:53:52;5.50;99.90
52615;DHT22;38508;53.158;6.614;2023-04-06T01:56:18;5.50;99.90
52615;DHT22;38508;53.158;6.614;2023-04-06T01:58:43;5.50;99.90
52615;DHT22;38508;53.158;6.614;2023-04-06T02:01:09;5.50;99.90
52615;DHT22;38508;53.158;6.614;2023-04-06T02:03:35;5.50;99.90
52615;DHT22;38508;53.158;6.614;2023-04-06T02:06:00;5.50;99.90
52615;DHT22;38508;53.158;6.614;2023-04-06T02:08:26;5.40;99.90
52615;DHT22;38508;53.158;6.614;2023-04-06T02:10:52;5.50;99.90
52615;DHT22;38508;53.158;6.614;2023-04-06T02:13:17;5.30;99.90
52615;DHT22;38508;53.158;6.614;2023-04-06T02:15:43;5.30;99.90
52615;DHT22;38508;53.158;6.614;2023-04-06T02:18:09;5.30;99.90
52615;DHT22;38508;53.158;6.614;2023-04-06T02:20:35;5.20;99.90
52615;DHT22;38508;53.158;6.614;2023-04-06T02:23:01;5.20;99.90
52615;DHT22;38508;53.158;6.614;2023-04-06T02:25:26;5.10;99.90
52615;DHT22;38508;53.158;6.614;2023-04-06T02:27:53;5.20;99.90
52615;DHT22;38508;53.158;6.614;2023-04-06T02:30:19;5.20;99.90
52615;DHT22;38508;53.158;6.614;2023-04-06T02:32:44;5.10;99.90
52615;DHT22;38508;53.158;6.614;2023-04-06T02:35:10;5.10;99.90
52615;DHT22;38508;53.158;6.614;2023-04-06T02:37:36;5.00;99.90
52615;DHT22;38508;53.158;6.614;2023-04-06T02:40:01;5.00;99.90
52615;DHT22;38508;53.158;6.614;2023-04-06T02:42:27;5.00;99.90
52615;DHT22;38508;53.158;6.614;2023-04-06T02:44:53;5.10;99.90
52615;DHT22;38508;53.158;6.614;2023-04-06T02:47:19;5.10;99.90
52615;DHT22;38508;53.158;6.614;2023-04-06T02:49:45;5.10;99.90
52615;DHT22;38508;53.158;6.614;2023-04-06T02:52:11;5.10;99.90
52615;DHT22;38508;53.158;6.614;2023-04-06T02:54:37;5.10;99.90
52615;DHT22;38508;53.158;6.614;2023-04-06T02:57:02;5.00;99.90
52615;DHT22;38508;53.158;6.614;2023-04-06T02:59:28;5.00;99.90
52615;DHT22;38508;53.158;6.614;2023-04-06T03:01:54;5.00;99.90
52615;DHT22;38508;53.158;6.614;2023-04-06T03:04:19;5.10;99.90
52615;DHT22;38508;53.158;6.614;2023-04-06T03:06:47;5.10;99.90
52615;DHT22;38508;53.158;6.614;2023-04-06T03:09:12;5.00;99.90
52615;DHT22;38508;53.158;6.614;2023-04-06T03:11:39;5.00;99.90
52615;DHT22;38508;53.158;6.614;2023-04-06T03:14:05;4.80;99.90
52615;DHT22;38508;53.158;6.614;2023-04-06T03:16:31;4.80;99.90
52615;DHT22;38508;53.158;6.614;2023-04-06T03:18:57;4.80;99.90
52615;DHT22;38508;53.158;6.614;2023-04-06T03:21:22;4.70;99.90
52615;DHT22;38508;53.158;6.614;2023-04-06T03:23:48;4.70;99.90
52615;DHT22;38508;53.158;6.614;2023-04-06T03:26:16;4.80;99.90
52615;DHT22;38508;53.158;6.614;2023-04-06T03:28:42;4.70;99.90
52615;DHT22;38508;53.158;6.614;2023-04-06T03:31:08;4.70;99.90
52615;DHT22;38508;53.158;6.614;2023-04-06T03:33:33;4.70;99.90
52615;DHT22;38508;53.158;6.614;2023-04-06T03:35:59;4.70;99.90
52615;DHT22;38508;53.158;6.614;2023-04-06T03:38:25;4.70;99.90
52615;DHT22;38508;53.158;6.614;2023-04-06T03:40:50;4.80;99.90
52615;DHT22;38508;53.158;6.614;2023-04-06T03:43:16;4.80;99.90
52615;DHT22;38508;53.158;6.614;2023-04-06T03:45:41;4.80;99.90
52615;DHT22;38508;53.158;6.614;2023-04-06T03:48:07;4.80;99.90
52615;DHT22;38508;53.158;6.614;2023-04-06T03:50:33;4.80;99.90
52615;DHT22;38508;53.158;6.614;2023-04-06T03:52:59;4.70;99.90
52615;DHT22;38508;53.158;6.614;2023-04-06T03:55:24;4.60;99.90
52615;DHT22;38508;53.158;6.614;2023-04-06T03:57:50;4.60;99.90
52615;DHT22;38508;53.158;6.614;2023-04-06T04:00:16;4.60;99.90
52615;DHT22;38508;53.158;6.614;2023-04-06T04:02:41;4.50;99.90
52615;DHT22;38508;53.158;6.614;2023-04-06T04:05:07;4.50;99.90
52615;DHT22;38508;53.158;6.614;2023-04-06T04:07:33;4.40;99.90
52615;DHT22;38508;53.158;6.614;2023-04-06T04:09:59;4.40;99.90
52615;DHT22;38508;53.158;6.614;2023-04-06T04:12:25;4.40;99.90
52615;DHT22;38508;53.158;6.614;2023-04-06T04:14:50;4.30;99.90
52615;DHT22;38508;53.158;6.614;2023-04-06T04:17:16;4.40;99.90
52615;DHT22;38508;53.158;6.614;2023-04-06T04:19:42;4.40;99.90
52615;DHT22;38508;53.158;6.614;2023-04-06T04:22:07;4.40;99.90
52615;DHT22;38508;53.158;6.614;2023-04-06T04:24:33;4.30;99.90
52615;DHT22;38508;53.158;6.614;2023-04-06T04:26:59;4.30;99.90
52615;DHT22;38508;53.158;6.614;2023-04-06T04:29:26;4.30;99.90
52615;DHT22;38508;53.158;6.614;2023-04-06T04:31:52;4.30;99.90
52615;DHT22;38508;53.158;6.614;2023-04-06T04:34:18;4.20;99.90
52615;DHT22;38508;53.158;6.614;2023-04-06T04:36:49;4.10;99.90
52615;DHT22;38508;53.158;6.614;2023-04-06T04:39:15;4.10;99.90
52615;DHT22;38508;53.158;6.614;2023-04-06T04:41:40;4.20;99.90
52615;DHT22;38508;53.158;6.614;2023-04-06T04:44:06;4.30;99.90
52615;DHT22;38508;53.158;6.614;2023-04-06T04:46:32;4.10;99.90
52615;DHT22;38508;53.158;6.614;2023-04-06T04:48:57;4.10;99.90
52615;DHT22;38508;53.158;6.614;2023-04-06T04:51:23;3.90;99.90
52615;DHT22;38508;53.158;6.614;2023-04-06T04:53:50;4.10;99.90
52615;DHT22;38508;53.158;6.614;2023-04-06T04:56:16;4.00;99.90
52615;DHT22;38508;53.158;6.614;2023-04-06T04:58:41;4.10;99.90
52615;DHT22;38508;53.158;6.614;2023-04-06T05:01:08;4.00;99.90
52615;DHT22;38508;53.158;6.614;2023-04-06T05:03:33;4.10;99.90
52615;DHT22;38508;53.158;6.614;2023-04-06T05:05:59;4.20;99.90
52615;DHT22;38508;53.158;6.614;2023-04-06T05:08:25;4.20;99.90
52615;DHT22;38508;53.158;6.614;2023-04-06T05:10:51;4.30;99.90
52615;DHT22;38508;53.158;6.614;2023-04-06T05:13:16;4.20;99.90
52615;DHT22;38508;53.158;6.614;2023-04-06T05:15:42;4.30;99.90
52615;DHT22;38508;53.158;6.614;2023-04-06T05:18:08;4.20;99.90
52615;DHT22;38508;53.158;6.614;2023-04-06T05:20:34;4.20;99.90
52615;DHT22;38508;53.158;6.614;2023-04-06T05:23:01;4.10;99.90
52615;DHT22;38508;53.158;6.614;2023-04-06T05:25:27;4.10;99.90
52615;DHT22;38508;53.158;6.614;2023-04-06T05:27:53;4.20;99.90
52615;DHT22;38508;53.158;6.614;2023-04-06T05:30:19;4.20;99.90
52615;DHT22;38508;53.158;6.614;2023-04-06T05:32:45;4.20;99.90
52615;DHT22;38508;53.158;6.614;2023-04-06T05:35:11;4.10;99.90
52615;DHT22;38508;53.158;6.614;2023-04-06T05:37:38;4.30;99.90
52615;DHT22;38508;53.158;6.614;2023-04-06T05:40:04;4.30;99.90
52615;DHT22;38508;53.158;6.614;2023-04-06T05:42:38;4.30;99.90
52615;DHT22;38508;53.158;6.614;2023-04-06T05:45:05;4.40;99.90
52615;DHT22;38508;53.158;6.614;2023-04-06T05:47:32;4.50;99.90
52615;DHT22;38508;53.158;6.614;2023-04-06T05:49:57;4.60;99.90
52615;DHT22;38508;53.158;6.614;2023-04-06T05:52:23;4.70;99.90
52615;DHT22;38508;53.158;6.614;2023-04-06T05:54:49;4.70;99.90
52615;DHT22;38508;53.158;6.614;2023-04-06T05:57:15;4.70;99.90
52615;DHT22;38508;53.158;6.614;2023-04-06T05:59:42;4.80;99.90
52615;DHT22;38508;53.158;6.614;2023-04-06T06:02:07;4.70;99.90
52615;DHT22;38508;53.158;6.614;2023-04-06T06:04:33;4.70;99.90
52615;DHT22;38508;53.158;6.614;2023-04-06T06:06:59;4.70;99.90
52615;DHT22;38508;53.158;6.614;2023-04-06T06:09:25;4.70;99.90
52615;DHT22;38508;53.158;6.614;2023-04-06T06:11:51;4.80;99.90
52615;DHT22;38508;53.158;6.614;2023-04-06T06:14:17;5.00;99.90
52615;DHT22;38508;53.158;6.614;2023-04-06T06:16:43;4.90;99.90
52615;DHT22;38508;53.158;6.614;2023-04-06T06:19:09;5.00;99.90
52615;DHT22;38508;53.158;6.614;2023-04-06T06:21:34;4.80;99.90
52615;DHT22;38508;53.158;6.614;2023-04-06T06:24:00;4.80;99.90
52615;DHT22;38508;53.158;6.614;2023-04-06T06:26:26;4.90;99.90
52615;DHT22;38508;53.158;6.614;2023-04-06T06:28:52;4.90;99.90
52615;DHT22;38508;53.158;6.614;2023-04-06T06:31:18;4.90;99.90
52615;DHT22;38508;53.158;6.614;2023-04-06T06:33:48;5.10;99.90
52615;DHT22;38508;53.158;6.614;2023-04-06T06:36:16;5.10;99.90
52615;DHT22;38508;53.158;6.614;2023-04-06T06:38:42;5.60;99.90
52615;DHT22;38508;53.158;6.614;2023-04-06T06:41:08;5.50;99.90
52615;DHT22;38508;53.158;6.614;2023-04-06T06:43:34;5.50;99.90
52615;DHT22;38508;53.158;6.614;2023-04-06T06:45:59;5.40;99.90
52615;DHT22;38508;53.158;6.614;2023-04-06T06:48:25;5.40;99.90
52615;DHT22;38508;53.158;6.614;2023-04-06T06:50:51;5.40;99.90
52615;DHT22;38508;53.158;6.614;2023-04-06T06:53:17;5.50;99.90
52615;DHT22;38508;53.158;6.614;2023-04-06T06:55:43;5.40;99.90
52615;DHT22;38508;53.158;6.614;2023-04-06T06:58:09;5.50;99.90
52615;DHT22;38508;53.158;6.614;2023-04-06T07:00:35;5.60;99.90
52615;DHT22;38508;53.158;6.614;2023-04-06T07:03:01;5.60;99.90
52615;DHT22;38508;53.158;6.614;2023-04-06T07:05:27;5.70;99.90
52615;DHT22;38508;53.158;6.614;2023-04-06T07:07:53;6.00;99.90
52615;DHT22;38508;53.158;6.614;2023-04-06T07:10:18;6.00;99.90
52615;DHT22;38508;53.158;6.614;2023-04-06T07:12:44;6.10;99.90
52615;DHT22;38508;53.158;6.614;2023-04-06T07:15:11;6.30;99.90
52615;DHT22;38508;53.158;6.614;2023-04-06T07:17:37;6.40;99.90
52615;DHT22;38508;53.158;6.614;2023-04-06T07:20:02;6.60;99.90
52615;DHT22;38508;53.158;6.614;2023-04-06T07:22:28;6.60;99.90
52615;DHT22;38508;53.158;6.614;2023-04-06T07:24:54;6.70;99.90
52615;DHT22;38508;53.158;6.614;2023-04-06T07:27:20;6.60;99.90
52615;DHT22;38508;53.158;6.614;2023-04-06T07:29:46;6.60;99.90
52615;DHT22;38508;53.158;6.614;2023-04-06T07:32:11;6.80;99.90
52615;DHT22;38508;53.158;6.614;2023-04-06T07:34:37;6.90;99.90
52615;DHT22;38508;53.158;6.614;2023-04-06T07:37:03;7.00;99.90
52615;DHT22;38508;53.158;6.614;2023-04-06T07:39:28;7.00;99.90
52615;DHT22;38508;53.158;6.614;2023-04-06T07:41:54;7.20;99.90
52615;DHT22;38508;53.158;6.614;2023-04-06T07:44:20;7.20;99.90
52615;DHT22;38508;53.158;6.614;2023-04-06T07:46:46;7.30;99.90
52615;DHT22;38508;53.158;6.614;2023-04-06T07:49:20;7.30;99.90
52615;DHT22;38508;53.158;6.614;2023-04-06T07:52:11;7.40;99.90
52615;DHT22;38508;53.158;6.614;2023-04-06T07:54:40;7.20;99.90
52615;DHT22;38508;53.158;6.614;2023-04-06T07:57:07;7.00;99.90
52615;DHT22;38508;53.158;6.614;2023-04-06T07:59:32;7.30;99.90
52615;DHT22;38508;53.158;6.614;2023-04-06T08:01:58;7.40;99.90
52615;DHT22;38508;53.158;6.614;2023-04-06T08:04:24;7.60;99.90
52615;DHT22;38508;53.158;6.614;2023-04-06T08:06:50;7.80;99.90
52615;DHT22;38508;53.158;6.614;2023-04-06T08:09:16;7.90;99.90
52615;DHT22;38508;53.158;6.614;2023-04-06T08:11:41;8.10;99.90
52615;DHT22;38508;53.158;6.614;2023-04-06T08:14:07;8.00;99.90
52615;DHT22;38508;53.158;6.614;2023-04-06T08:16:33;8.30;99.90
52615;DHT22;38508;53.158;6.614;2023-04-06T08:18:59;8.30;99.90
52615;DHT22;38508;53.158;6.614;2023-04-06T08:21:24;8.40;99.90
52615;DHT22;38508;53.158;6.614;2023-04-06T08:23:50;8.50;99.90
52615;DHT22;38508;53.158;6.614;2023-04-06T08:26:16;8.70;99.90
52615;DHT22;38508;53.158;6.614;2023-04-06T08:28:41;8.70;99.90
52615;DHT22;38508;53.158;6.614;2023-04-06T08:31:07;8.90;99.90
52615;DHT22;38508;53.158;6.614;2023-04-06T08:33:33;8.90;99.90
52615;DHT22;38508;53.158;6.614;2023-04-06T08:36:09;9.10;99.90
52615;DHT22;38508;53.158;6.614;2023-04-06T08:38:35;9.20;99.90
52615;DHT22;38508;53.158;6.614;2023-04-06T08:41:10;9.40;99.90
52615;DHT22;38508;53.158;6.614;2023-04-06T08:43:41;9.50;99.90
52615;DHT22;38508;53.158;6.614;2023-04-06T08:46:08;9.70;99.90
52615;DHT22;38508;53.158;6.614;2023-04-06T08:48:34;9.70;99.90
52615;DHT22;38508;53.158;6.614;2023-04-06T08:51:02;9.90;99.90
52615;DHT22;38508;53.158;6.614;2023-04-06T08:53:28;10.10;99.90
52615;DHT22;38508;53.158;6.614;2023-04-06T08:55:55;10.00;99.90
52615;DHT22;38508;53.158;6.614;2023-04-06T08:58:22;10.00;99.90
52615;DHT22;38508;53.158;6.614;2023-04-06T09:00:49;10.20;99.90
52615;DHT22;38508;53.158;6.614;2023-04-06T09:03:15;10.50;99.90
52615;DHT22;38508;53.158;6.614;2023-04-06T09:05:43;10.60;99.90
52615;DHT22;38508;53.158;6.614;2023-04-06T09:08:09;10.80;99.90
52615;DHT22;38508;53.158;6.614;2023-04-06T09:10:34;10.80;99.90
52615;DHT22;38508;53.158;6.614;2023-04-06T09:13:05;10.90;99.90
52615;DHT22;38508;53.158;6.614;2023-04-06T09:15:31;10.80;99.90
52615;DHT22;38508;53.158;6.614;2023-04-06T09:17:57;11.00;99.90
52615;DHT22;38508;53.158;6.614;2023-04-06T09:20:24;11.20;99.90
52615;DHT22;38508;53.158;6.614;2023-04-06T09:22:57;11.30;99.90
52615;DHT22;38508;53.158;6.614;2023-04-06T09:25:24;11.50;99.90
52615;DHT22;38508;53.158;6.614;2023-04-06T09:28:04;11.50;99.90
52615;DHT22;38508;53.158;6.614;2023-04-06T09:30:35;11.50;99.90
52615;DHT22;38508;53.158;6.614;2023-04-06T09:33:01;11.50;99.90
52615;DHT22;38508;53.158;6.614;2023-04-06T09:35:27;11.30;99.90
52615;DHT22;38508;53.158;6.614;2023-04-06T09:37:55;11.40;99.90
52615;DHT22;38508;53.158;6.614;2023-04-06T09:40:21;11.40;99.90
52615;DHT22;38508;53.158;6.614;2023-04-06T09:42:50;11.50;99.90
52615;DHT22;38508;53.158;6.614;2023-04-06T09:45:18;11.70;99.90
52615;DHT22;38508;53.158;6.614;2023-04-06T09:47:45;11.90;99.90
52615;DHT22;38508;53.158;6.614;2023-04-06T09:50:14;12.00;99.90
52615;DHT22;38508;53.158;6.614;2023-04-06T09:52:50;12.10;99.90
52615;DHT22;38508;53.158;6.614;2023-04-06T09:55:23;12.10;99.90
52615;DHT22;38508;53.158;6.614;2023-04-06T09:58:07;12.20;99.90
52615;DHT22;38508;53.158;6.614;2023-04-06T10:00:47;12.20;99.90
52615;DHT22;38508;53.158;6.614;2023-04-06T10:03:14;12.10;99.90
52615;DHT22;38508;53.158;6.614;2023-04-06T10:06:01;12.10;99.90
52615;DHT22;38508;53.158;6.614;2023-04-06T10:08:33;12.20;99.90
52615;DHT22;38508;53.158;6.614;2023-04-06T10:11:01;12.10;99.90
52615;DHT22;38508;53.158;6.614;2023-04-06T10:13:27;12.20;99.90
52615;DHT22;38508;53.158;6.614;2023-04-06T10:15:54;12.20;99.90
52615;DHT22;38508;53.158;6.614;2023-04-06T10:18:21;12.30;99.90
52615;DHT22;38508;53.158;6.614;2023-04-06T10:24:01;12.30;99.90
52615;DHT22;38508;53.158;6.614;2023-04-06T10:26:27;12.50;99.90
52615;DHT22;38508;53.158;6.614;2023-04-06T10:28:53;12.80;99.90
52615;DHT22;38508;53.158;6.614;2023-04-06T10:31:27;12.80;99.90
52615;DHT22;38508;53.158;6.614;2023-04-06T10:33:57;12.80;99.90
52615;DHT22;38508;53.158;6.614;2023-04-06T10:36:26;12.90;99.90
52615;DHT22;38508;53.158;6.614;2023-04-06T10:38:58;13.10;99.90
52615;DHT22;38508;53.158;6.614;2023-04-06T10:41:32;13.20;99.90
52615;DHT22;38508;53.158;6.614;2023-04-06T10:43:59;13.40;99.90
52615;DHT22;38508;53.158;6.614;2023-04-06T10:46:30;12.80;99.90
52615;DHT22;38508;53.158;6.614;2023-04-06T10:48:56;12.80;99.90
52615;DHT22;38508;53.158;6.614;2023-04-06T10:51:27;12.90;99.90
52615;DHT22;38508;53.158;6.614;2023-04-06T10:53:54;12.80;99.90
52615;DHT22;38508;53.158;6.614;2023-04-06T10:56:23;12.80;99.90
52615;DHT22;38508;53.158;6.614;2023-04-06T10:58:55;12.90;99.90
52615;DHT22;38508;53.158;6.614;2023-04-06T11:01:22;13.20;99.90
52615;DHT22;38508;53.158;6.614;2023-04-06T11:03:52;13.20;99.90
52615;DHT22;38508;53.158;6.614;2023-04-06T11:06:37;13.50;99.90
52615;DHT22;38508;53.158;6.614;2023-04-06T11:09:03;13.40;99.90
52615;DHT22;38508;53.158;6.614;2023-04-06T11:11:29;12.90;99.90
52615;DHT22;38508;53.158;6.614;2023-04-06T11:13:56;12.90;99.90
52615;DHT22;38508;53.158;6.614;2023-04-06T11:16:28;13.00;99.90
52615;DHT22;38508;53.158;6.614;2023-04-06T11:18:58;13.30;99.90
52615;DHT22;38508;53.158;6.614;2023-04-06T11:21:41;13.60;99.90
52615;DHT22;38508;53.158;6.614;2023-04-06T11:24:19;13.20;99.90
52615;DHT22;38508;53.158;6.614;2023-04-06T11:26:55;13.20;99.90
52615;DHT22;38508;53.158;6.614;2023-04-06T11:29:25;13.20;99.90
52615;DHT22;38508;53.158;6.614;2023-04-06T11:31:59;13.40;99.90
52615;DHT22;38508;53.158;6.614;2023-04-06T11:34:27;13.40;99.90
52615;DHT22;38508;53.158;6.614;2023-04-06T11:37:07;13.40;99.90
52615;DHT22;38508;53.158;6.614;2023-04-06T11:39:39;13.60;99.90
52615;DHT22;38508;53.158;6.614;2023-04-06T11:42:08;13.90;99.90
52615;DHT22;38508;53.158;6.614;2023-04-06T11:44:35;14.20;99.90
52615;DHT22;38508;53.158;6.614;2023-04-06T11:47:02;14.30;99.90
52615;DHT22;38508;53.158;6.614;2023-04-06T11:49:30;14.20;99.90
52615;DHT22;38508;53.158;6.614;2023-04-06T11:51:57;13.80;99.90
52615;DHT22;38508;53.158;6.614;2023-04-06T11:54:50;13.80;99.90
52615;DHT22;38508;53.158;6.614;2023-04-06T11:57:17;13.80;99.90
52615;DHT22;38508;53.158;6.614;2023-04-06T11:59:43;14.00;99.90
52615;DHT22;38508;53.158;6.614;2023-04-06T12:02:09;14.10;99.90
52615;DHT22;38508;53.158;6.614;2023-04-06T12:04:35;14.10;99.90
52615;DHT22;38508;53.158;6.614;2023-04-06T12:07:01;13.90;99.90
52615;DHT22;38508;53.158;6.614;2023-04-06T12:09:27;13.90;99.90
52615;DHT22;38508;53.158;6.614;2023-04-06T12:11:52;13.80;99.90
52615;DHT22;38508;53.158;6.614;2023-04-06T12:14:19;13.70;99.90
52615;DHT22;38508;53.158;6.614;2023-04-06T12:16:45;13.60;99.90
52615;DHT22;38508;53.158;6.614;2023-04-06T12:19:11;13.60;99.90
52615;DHT22;38508;53.158;6.614;2023-04-06T12:21:36;13.70;99.90
52615;DHT22;38508;53.158;6.614;2023-04-06T12:24:03;13.70;99.90
52615;DHT22;38508;53.158;6.614;2023-04-06T12:26:30;13.80;99.90
52615;DHT22;38508;53.158;6.614;2023-04-06T12:28:56;13.70;99.90
52615;DHT22;38508;53.158;6.614;2023-04-06T12:31:22;13.90;99.90
52615;DHT22;38508;53.158;6.614;2023-04-06T12:33:50;14.10;99.90
52615;DHT22;38508;53.158;6.614;2023-04-06T12:36:18;14.00;99.90
52615;DHT22;38508;53.158;6.614;2023-04-06T12:38:47;14.00;99.90
52615;DHT22;38508;53.158;6.614;2023-04-06T12:41:14;13.90;99.90
52615;DHT22;38508;53.158;6.614;2023-04-06T12:43:42;13.90;99.90
52615;DHT22;38508;53.158;6.614;2023-04-06T12:46:09;13.50;99.90
52615;DHT22;38508;53.158;6.614;2023-04-06T12:48:35;13.40;99.90
52615;DHT22;38508;53.158;6.614;2023-04-06T12:51:03;13.50;99.90
52615;DHT22;38508;53.158;6.614;2023-04-06T12:53:29;13.60;99.90
52615;DHT22;38508;53.158;6.614;2023-04-06T12:55:56;13.90;99.90
52615;DHT22;38508;53.158;6.614;2023-04-06T12:58:22;13.90;99.90
52615;DHT22;38508;53.158;6.614;2023-04-06T13:00:49;13.90;99.90
52615;DHT22;38508;53.158;6.614;2023-04-06T13:03:19;14.10;99.90
52615;DHT22;38508;53.158;6.614;2023-04-06T13:05:50;14.20;99.90
52615;DHT22;38508;53.158;6.614;2023-04-06T13:08:17;14.00;99.90
52615;DHT22;38508;53.158;6.614;2023-04-06T13:10:47;14.20;99.90
52615;DHT22;38508;53.158;6.614;2023-04-06T13:13:17;14.10;99.90
52615;DHT22;38508;53.158;6.614;2023-04-06T13:15:44;14.00;99.90
52615;DHT22;38508;53.158;6.614;2023-04-06T13:18:10;14.00;99.90
52615;DHT22;38508;53.158;6.614;2023-04-06T13:20:36;13.90;99.90
52615;DHT22;38508;53.158;6.614;2023-04-06T13:23:02;13.80;99.90
52615;DHT22;38508;53.158;6.614;2023-04-06T13:25:28;13.90;99.90
52615;DHT22;38508;53.158;6.614;2023-04-06T13:27:55;13.90;99.90
52615;DHT22;38508;53.158;6.614;2023-04-06T13:30:20;13.90;99.90
52615;DHT22;38508;53.158;6.614;2023-04-06T13:32:46;13.90;99.90
52615;DHT22;38508;53.158;6.614;2023-04-06T13:35:12;13.80;99.90
52615;DHT22;38508;53.158;6.614;2023-04-06T13:37:38;13.60;99.90
52615;DHT22;38508;53.158;6.614;2023-04-06T13:40:05;13.70;99.90
52615;DHT22;38508;53.158;6.614;2023-04-06T13:42:31;13.80;99.90
52615;DHT22;38508;53.158;6.614;2023-04-06T13:44:58;13.80;99.90
52615;DHT22;38508;53.158;6.614;2023-04-06T13:47:23;14.00;99.90
52615;DHT22;38508;53.158;6.614;2023-04-06T13:49:52;14.10;99.90
52615;DHT22;38508;53.158;6.614;2023-04-06T13:52:19;14.10;99.90
52615;DHT22;38508;53.158;6.614;2023-04-06T13:54:45;14.00;99.90
52615;DHT22;38508;53.158;6.614;2023-04-06T13:57:11;13.90;99.90
52615;DHT22;38508;53.158;6.614;2023-04-06T13:59:38;13.50;99.90
52615;DHT22;38508;53.158;6.614;2023-04-06T14:02:06;13.40;99.90
52615;DHT22;38508;53.158;6.614;2023-04-06T14:04:32;13.50;99.90
52615;DHT22;38508;53.158;6.614;2023-04-06T14:06:59;13.80;99.90
52615;DHT22;38508;53.158;6.614;2023-04-06T14:09:25;13.80;99.90
52615;DHT22;38508;53.158;6.614;2023-04-06T14:11:52;13.80;99.90
52615;DHT22;38508;53.158;6.614;2023-04-06T14:14:17;13.70;99.90
52615;DHT22;38508;53.158;6.614;2023-04-06T14:16:43;13.70;99.90
52615;DHT22;38508;53.158;6.614;2023-04-06T14:19:10;13.70;99.90
52615;DHT22;38508;53.158;6.614;2023-04-06T14:21:38;13.60;99.90
52615;DHT22;38508;53.158;6.614;2023-04-06T14:24:06;13.70;99.90
52615;DHT22;38508;53.158;6.614;2023-04-06T14:26:32;13.70;99.90
52615;DHT22;38508;53.158;6.614;2023-04-06T14:28:59;13.60;99.90
52615;DHT22;38508;53.158;6.614;2023-04-06T14:31:25;13.50;99.90
52615;DHT22;38508;53.158;6.614;2023-04-06T14:33:52;13.50;99.90
52615;DHT22;38508;53.158;6.614;2023-04-06T14:36:18;13.70;99.90
52615;DHT22;38508;53.158;6.614;2023-04-06T14:38:43;13.40;99.90
52615;DHT22;38508;53.158;6.614;2023-04-06T14:41:19;13.30;99.90
52615;DHT22;38508;53.158;6.614;2023-04-06T14:43:47;13.30;99.90
52615;DHT22;38508;53.158;6.614;2023-04-06T14:46:13;13.30;99.90
52615;DHT22;38508;53.158;6.614;2023-04-06T14:48:39;13.40;99.90
52615;DHT22;38508;53.158;6.614;2023-04-06T14:51:05;13.10;99.90
52615;DHT22;38508;53.158;6.614;2023-04-06T14:53:32;13.10;99.90
52615;DHT22;38508;53.158;6.614;2023-04-06T14:55:57;12.90;99.90
52615;DHT22;38508;53.158;6.614;2023-04-06T14:58:24;12.90;99.90
52615;DHT22;38508;53.158;6.614;2023-04-06T15:00:55;12.80;99.90
52615;DHT22;38508;53.158;6.614;2023-04-06T15:03:22;12.60;99.90
52615;DHT22;38508;53.158;6.614;2023-04-06T15:05:50;12.50;99.90
52615;DHT22;38508;53.158;6.614;2023-04-06T15:08:16;12.50;99.90
52615;DHT22;38508;53.158;6.614;2023-04-06T15:10:42;12.60;99.90
52615;DHT22;38508;53.158;6.614;2023-04-06T15:13:08;12.50;99.90
52615;DHT22;38508;53.158;6.614;2023-04-06T15:15:33;12.50;99.90
52615;DHT22;38508;53.158;6.614;2023-04-06T15:17:59;12.60;99.90
52615;DHT22;38508;53.158;6.614;2023-04-06T15:20:27;12.60;99.90
52615;DHT22;38508;53.158;6.614;2023-04-06T15:22:53;12.40;99.90
52615;DHT22;38508;53.158;6.614;2023-04-06T15:25:19;12.20;99.90
52615;DHT22;38508;53.158;6.614;2023-04-06T15:27:44;12.10;99.90
52615;DHT22;38508;53.158;6.614;2023-04-06T15:30:10;12.00;99.90
52615;DHT22;38508;53.158;6.614;2023-04-06T15:32:36;12.00;99.90
52615;DHT22;38508;53.158;6.614;2023-04-06T15:35:09;12.10;99.90
52615;DHT22;38508;53.158;6.614;2023-04-06T15:37:35;12.20;99.90
52615;DHT22;38508;53.158;6.614;2023-04-06T15:40:01;12.20;99.90
52615;DHT22;38508;53.158;6.614;2023-04-06T15:42:27;12.00;99.90